sensor_id;sensor_type;location;lat;lon;timestamp;P1;durP1;ratioP1;P2;durP2;ratioP2
49514;SDS011;35415;47.870;16.058;2023-04-24T00:00:36;2.90;;;1.70;;
49514;SDS011;35415;47.870;16.058;2023-04-24T00:03:09;1.45;;;1.30;;
49514;SDS011;35415;47.870;16.058;2023-04-24T00:05:37;1.55;;;1.20;;
49514;SDS011;35415;47.870;16.058;2023-04-24T00:08:09;1.35;;;1.13;;
49514;SDS011;35415;47.870;16.058;2023-04-24T00:10:36;4.18;;;1.98;;
49514;SDS011;35415;47.870;16.058;2023-04-24T00:13:04;2.25;;;1.85;;
49514;SDS011;35415;47.870;16.058;2023-04-24T00:15:31;1.45;;;1.10;;
49514;SDS011;35415;47.870;16.058;2023-04-24T00:18:00;1.67;;;1.40;;
49514;SDS011;35415;47.870;16.058;2023-04-24T00:20:27;2.35;;;1.35;;
49514;SDS011;35415;47.870;16.058;2023-04-24T00:22:57;1.63;;;1.30;;
49514;SDS011;35415;47.870;16.058;2023-04-24T00:25:24;2.55;;;1.33;;
49514;SDS011;35415;47.870;16.058;2023-04-24T00:27:54;4.10;;;1.50;;
49514;SDS011;35415;47.870;16.058;2023-04-24T00:30:21;1.90;;;1.38;;
49514;SDS011;35415;47.870;16.058;2023-04-24T00:32:50;1.58;;;1.30;;
49514;SDS011;35415;47.870;16.058;2023-04-24T00:35:19;2.10;;;1.38;;
49514;SDS011;35415;47.870;16.058;2023-04-24T00:37:47;3.33;;;1.55;;
49514;SDS011;35415;47.870;16.058;2023-04-24T00:40:14;1.75;;;1.35;;
49514;SDS011;35415;47.870;16.058;2023-04-24T00:42:42;1.25;;;1.08;;
49514;SDS011;35415;47.870;16.058;2023-04-24T00:45:10;1.30;;;1.10;;
49514;SDS011;35415;47.870;16.058;2023-04-24T00:47:38;6.82;;;1.60;;
49514;SDS011;35415;47.870;16.058;2023-04-24T00:50:08;1.52;;;1.10;;
49514;SDS011;35415;47.870;16.058;2023-04-24T00:52:42;1.58;;;1.20;;
49514;SDS011;35415;47.870;16.058;2023-04-24T00:55:10;2.05;;;1.40;;
49514;SDS011;35415;47.870;16.058;2023-04-24T00:57:37;1.63;;;1.42;;
49514;SDS011;35415;47.870;16.058;2023-04-24T01:00:06;2.35;;;1.48;;
49514;SDS011;35415;47.870;16.058;2023-04-24T01:02:37;3.70;;;1.50;;
49514;SDS011;35415;47.870;16.058;2023-04-24T01:05:09;3.33;;;1.58;;
49514;SDS011;35415;47.870;16.058;2023-04-24T01:07:38;1.83;;;1.30;;
49514;SDS011;35415;47.870;16.058;2023-04-24T01:10:13;1.50;;;1.20;;
49514;SDS011;35415;47.870;16.058;2023-04-24T01:12:44;2.13;;;1.33;;
49514;SDS011;35415;47.870;16.058;2023-04-24T01:15:12;2.28;;;1.42;;
49514;SDS011;35415;47.870;16.058;2023-04-24T01:17:39;1.20;;;1.00;;
49514;SDS011;35415;47.870;16.058;2023-04-24T01:20:06;1.58;;;1.40;;
49514;SDS011;35415;47.870;16.058;2023-04-24T01:22:37;1.92;;;1.25;;
49514;SDS011;35415;47.870;16.058;2023-04-24T01:25:06;1.30;;;1.20;;
49514;SDS011;35415;47.870;16.058;2023-04-24T01:27:34;2.15;;;1.38;;
49514;SDS011;35415;47.870;16.058;2023-04-24T01:30:01;1.58;;;1.27;;
49514;SDS011;35415;47.870;16.058;2023-04-24T01:32:30;1.20;;;1.08;;
49514;SDS011;35415;47.870;16.058;2023-04-24T01:34:57;1.38;;;1.27;;
49514;SDS011;35415;47.870;16.058;2023-04-24T01:37:26;1.85;;;1.25;;
49514;SDS011;35415;47.870;16.058;2023-04-24T01:39:56;2.42;;;1.20;;
49514;SDS011;35415;47.870;16.058;2023-04-24T01:42:23;1.20;;;1.10;;
49514;SDS011;35415;47.870;16.058;2023-04-24T01:44:51;2.42;;;1.38;;
49514;SDS011;35415;47.870;16.058;2023-04-24T01:47:18;6.85;;;2.20;;
49514;SDS011;35415;47.870;16.058;2023-04-24T01:49:45;1.80;;;1.23;;
49514;SDS011;35415;47.870;16.058;2023-04-24T01:52:14;1.27;;;1.17;;
49514;SDS011;35415;47.870;16.058;2023-04-24T01:54:43;1.95;;;1.30;;
49514;SDS011;35415;47.870;16.058;2023-04-24T01:57:12;1.25;;;1.13;;
49514;SDS011;35415;47.870;16.058;2023-04-24T01:59:41;1.63;;;1.20;;
49514;SDS011;35415;47.870;16.058;2023-04-24T02:02:09;2.00;;;1.45;;
49514;SDS011;35415;47.870;16.058;2023-04-24T02:04:36;1.92;;;1.40;;
49514;SDS011;35415;47.870;16.058;2023-04-24T02:07:04;1.73;;;1.00;;
49514;SDS011;35415;47.870;16.058;2023-04-24T02:09:32;1.75;;;1.30;;
49514;SDS011;35415;47.870;16.058;2023-04-24T02:11:59;2.05;;;1.30;;
49514;SDS011;35415;47.870;16.058;2023-04-24T02:14:28;1.80;;;1.20;;
49514;SDS011;35415;47.870;16.058;2023-04-24T02:16:56;2.58;;;1.40;;
49514;SDS011;35415;47.870;16.058;2023-04-24T02:19:24;1.75;;;1.30;;
49514;SDS011;35415;47.870;16.058;2023-04-24T02:21:51;3.10;;;1.38;;
49514;SDS011;35415;47.870;16.058;2023-04-24T02:24:18;1.50;;;1.40;;
49514;SDS011;35415;47.870;16.058;2023-04-24T02:26:45;1.77;;;1.15;;
49514;SDS011;35415;47.870;16.058;2023-04-24T02:29:13;1.33;;;1.20;;
49514;SDS011;35415;47.870;16.058;2023-04-24T02:31:44;1.80;;;1.33;;
49514;SDS011;35415;47.870;16.058;2023-04-24T02:34:12;1.67;;;1.30;;
49514;SDS011;35415;47.870;16.058;2023-04-24T02:36:39;1.75;;;1.10;;
49514;SDS011;35415;47.870;16.058;2023-04-24T02:39:06;1.88;;;1.55;;
49514;SDS011;35415;47.870;16.058;2023-04-24T02:41:34;1.75;;;1.65;;
49514;SDS011;35415;47.870;16.058;2023-04-24T02:44:02;1.25;;;1.10;;
49514;SDS011;35415;47.870;16.058;2023-04-24T02:46:30;2.35;;;1.30;;
49514;SDS011;35415;47.870;16.058;2023-04-24T02:49:00;3.10;;;1.30;;
49514;SDS011;35415;47.870;16.058;2023-04-24T02:51:28;2.17;;;1.40;;
49514;SDS011;35415;47.870;16.058;2023-04-24T02:53:58;1.40;;;1.20;;
49514;SDS011;35415;47.870;16.058;2023-04-24T02:56:28;1.80;;;1.20;;
49514;SDS011;35415;47.870;16.058;2023-04-24T02:58:55;1.45;;;1.17;;
49514;SDS011;35415;47.870;16.058;2023-04-24T03:01:23;1.35;;;0.85;;
49514;SDS011;35415;47.870;16.058;2023-04-24T03:03:50;1.30;;;1.20;;
49514;SDS011;35415;47.870;16.058;2023-04-24T03:06:19;2.22;;;1.10;;
49514;SDS011;35415;47.870;16.058;2023-04-24T03:08:46;1.40;;;1.25;;
49514;SDS011;35415;47.870;16.058;2023-04-24T03:11:14;2.13;;;1.38;;
49514;SDS011;35415;47.870;16.058;2023-04-24T03:13:41;1.90;;;1.23;;
49514;SDS011;35415;47.870;16.058;2023-04-24T03:16:09;1.80;;;1.30;;
49514;SDS011;35415;47.870;16.058;2023-04-24T03:18:36;1.73;;;1.20;;
49514;SDS011;35415;47.870;16.058;2023-04-24T03:21:03;1.48;;;1.10;;
49514;SDS011;35415;47.870;16.058;2023-04-24T03:23:33;3.70;;;1.23;;
49514;SDS011;35415;47.870;16.058;2023-04-24T03:26:00;1.77;;;1.40;;
49514;SDS011;35415;47.870;16.058;2023-04-24T03:28:28;1.30;;;1.20;;
49514;SDS011;35415;47.870;16.058;2023-04-24T03:30:55;1.38;;;1.15;;
49514;SDS011;35415;47.870;16.058;2023-04-24T03:33:23;1.23;;;1.13;;
49514;SDS011;35415;47.870;16.058;2023-04-24T03:35:50;1.40;;;1.20;;
49514;SDS011;35415;47.870;16.058;2023-04-24T03:38:19;2.38;;;1.33;;
49514;SDS011;35415;47.870;16.058;2023-04-24T03:40:49;1.15;;;1.05;;
49514;SDS011;35415;47.870;16.058;2023-04-24T03:43:18;1.67;;;1.02;;
49514;SDS011;35415;47.870;16.058;2023-04-24T03:45:49;2.10;;;1.15;;
49514;SDS011;35415;47.870;16.058;2023-04-24T03:48:20;1.23;;;1.00;;
49514;SDS011;35415;47.870;16.058;2023-04-24T03:50:47;2.15;;;1.23;;
49514;SDS011;35415;47.870;16.058;2023-04-24T03:53:17;3.10;;;1.20;;
49514;SDS011;35415;47.870;16.058;2023-04-24T03:55:45;2.60;;;1.20;;
49514;SDS011;35415;47.870;16.058;2023-04-24T03:58:14;1.23;;;1.08;;
49514;SDS011;35415;47.870;16.058;2023-04-24T04:00:43;3.92;;;1.48;;
49514;SDS011;35415;47.870;16.058;2023-04-24T04:03:11;1.75;;;1.00;;
49514;SDS011;35415;47.870;16.058;2023-04-24T04:05:39;1.10;;;1.00;;
49514;SDS011;35415;47.870;16.058;2023-04-24T04:08:07;3.97;;;1.00;;
49514;SDS011;35415;47.870;16.058;2023-04-24T04:10:36;1.30;;;0.98;;
49514;SDS011;35415;47.870;16.058;2023-04-24T04:13:03;3.20;;;0.80;;
49514;SDS011;35415;47.870;16.058;2023-04-24T04:15:33;1.67;;;0.90;;
49514;SDS011;35415;47.870;16.058;2023-04-24T04:18:02;1.55;;;0.93;;
49514;SDS011;35415;47.870;16.058;2023-04-24T04:20:30;1.25;;;1.00;;
49514;SDS011;35415;47.870;16.058;2023-04-24T04:23:02;1.65;;;0.80;;
49514;SDS011;35415;47.870;16.058;2023-04-24T04:25:32;1.05;;;0.70;;
49514;SDS011;35415;47.870;16.058;2023-04-24T04:28:04;0.80;;;0.80;;
49514;SDS011;35415;47.870;16.058;2023-04-24T04:30:45;0.70;;;0.70;;
49514;SDS011;35415;47.870;16.058;2023-04-24T04:33:26;0.80;;;0.80;;
49514;SDS011;35415;47.870;16.058;2023-04-24T04:35:53;1.13;;;0.82;;
49514;SDS011;35415;47.870;16.058;2023-04-24T04:38:21;0.95;;;0.80;;
49514;SDS011;35415;47.870;16.058;2023-04-24T04:40:49;0.95;;;0.80;;
49514;SDS011;35415;47.870;16.058;2023-04-24T04:43:17;1.45;;;1.00;;
49514;SDS011;35415;47.870;16.058;2023-04-24T04:45:46;2.00;;;1.20;;
49514;SDS011;35415;47.870;16.058;2023-04-24T04:48:13;2.50;;;1.40;;
49514;SDS011;35415;47.870;16.058;2023-04-24T04:50:43;1.50;;;1.40;;
49514;SDS011;35415;47.870;16.058;2023-04-24T04:53:11;2.17;;;1.42;;
49514;SDS011;35415;47.870;16.058;2023-04-24T04:55:38;3.15;;;1.00;;
49514;SDS011;35415;47.870;16.058;2023-04-24T04:58:08;1.48;;;1.15;;
49514;SDS011;35415;47.870;16.058;2023-04-24T05:00:35;3.13;;;1.00;;
49514;SDS011;35415;47.870;16.058;2023-04-24T05:03:06;1.13;;;0.95;;
49514;SDS011;35415;47.870;16.058;2023-04-24T05:05:34;1.60;;;1.15;;
49514;SDS011;35415;47.870;16.058;2023-04-24T05:08:05;1.38;;;0.98;;
49514;SDS011;35415;47.870;16.058;2023-04-24T05:10:33;0.82;;;0.82;;
49514;SDS011;35415;47.870;16.058;2023-04-24T05:13:04;1.00;;;0.88;;
49514;SDS011;35415;47.870;16.058;2023-04-24T05:15:31;1.42;;;0.90;;
49514;SDS011;35415;47.870;16.058;2023-04-24T05:17:59;1.38;;;0.90;;
49514;SDS011;35415;47.870;16.058;2023-04-24T05:20:28;1.23;;;1.08;;
49514;SDS011;35415;47.870;16.058;2023-04-24T05:22:55;1.73;;;0.90;;
49514;SDS011;35415;47.870;16.058;2023-04-24T05:25:22;1.33;;;0.88;;
49514;SDS011;35415;47.870;16.058;2023-04-24T05:27:52;1.00;;;0.88;;
49514;SDS011;35415;47.870;16.058;2023-04-24T05:30:21;0.65;;;0.60;;
49514;SDS011;35415;47.870;16.058;2023-04-24T05:32:51;0.88;;;0.63;;
49514;SDS011;35415;47.870;16.058;2023-04-24T05:35:19;1.35;;;0.85;;
49514;SDS011;35415;47.870;16.058;2023-04-24T05:37:48;0.70;;;0.60;;
49514;SDS011;35415;47.870;16.058;2023-04-24T05:40:15;1.30;;;0.63;;
49514;SDS011;35415;47.870;16.058;2023-04-24T05:42:48;1.77;;;0.70;;
49514;SDS011;35415;47.870;16.058;2023-04-24T05:45:16;1.40;;;0.63;;
49514;SDS011;35415;47.870;16.058;2023-04-24T05:47:43;1.17;;;0.70;;
49514;SDS011;35415;47.870;16.058;2023-04-24T05:50:11;1.25;;;0.70;;
49514;SDS011;35415;47.870;16.058;2023-04-24T05:52:39;0.60;;;0.60;;
49514;SDS011;35415;47.870;16.058;2023-04-24T05:55:22;0.90;;;0.70;;
49514;SDS011;35415;47.870;16.058;2023-04-24T05:57:54;1.13;;;0.70;;
49514;SDS011;35415;47.870;16.058;2023-04-24T06:00:21;1.27;;;0.50;;
49514;SDS011;35415;47.870;16.058;2023-04-24T06:02:52;0.93;;;0.50;;
49514;SDS011;35415;47.870;16.058;2023-04-24T06:05:20;1.67;;;0.70;;
49514;SDS011;35415;47.870;16.058;2023-04-24T06:08:18;2.63;;;0.80;;
49514;SDS011;35415;47.870;16.058;2023-04-24T06:10:48;1.83;;;0.60;;
49514;SDS011;35415;47.870;16.058;2023-04-24T06:13:20;1.13;;;0.50;;
49514;SDS011;35415;47.870;16.058;2023-04-24T06:15:50;1.08;;;0.60;;
49514;SDS011;35415;47.870;16.058;2023-04-24T06:18:19;1.67;;;0.73;;
49514;SDS011;35415;47.870;16.058;2023-04-24T06:20:47;1.98;;;0.60;;
49514;SDS011;35415;47.870;16.058;2023-04-24T06:23:20;0.50;;;0.50;;
49514;SDS011;35415;47.870;16.058;2023-04-24T06:28:22;0.52;;;0.52;;
49514;SDS011;35415;47.870;16.058;2023-04-24T06:30:51;1.30;;;0.50;;
49514;SDS011;35415;47.870;16.058;2023-04-24T06:33:30;1.27;;;0.60;;
49514;SDS011;35415;47.870;16.058;2023-04-24T06:36:00;0.50;;;0.50;;
49514;SDS011;35415;47.870;16.058;2023-04-24T06:38:30;0.70;;;0.50;;
49514;SDS011;35415;47.870;16.058;2023-04-24T06:41:00;0.60;;;0.60;;
49514;SDS011;35415;47.870;16.058;2023-04-24T06:43:30;0.50;;;0.50;;
49514;SDS011;35415;47.870;16.058;2023-04-24T06:45:57;0.50;;;0.50;;
49514;SDS011;35415;47.870;16.058;2023-04-24T06:48:27;0.38;;;0.38;;
49514;SDS011;35415;47.870;16.058;2023-04-24T06:50:54;0.52;;;0.50;;
49514;SDS011;35415;47.870;16.058;2023-04-24T06:53:24;1.05;;;0.70;;
49514;SDS011;35415;47.870;16.058;2023-04-24T06:55:52;0.80;;;0.63;;
49514;SDS011;35415;47.870;16.058;2023-04-24T06:58:22;0.70;;;0.40;;
49514;SDS011;35415;47.870;16.058;2023-04-24T07:00:52;0.57;;;0.50;;
49514;SDS011;35415;47.870;16.058;2023-04-24T07:03:20;0.50;;;0.50;;
49514;SDS011;35415;47.870;16.058;2023-04-24T07:05:48;0.45;;;0.40;;
49514;SDS011;35415;47.870;16.058;2023-04-24T07:08:15;1.15;;;0.70;;
49514;SDS011;35415;47.870;16.058;2023-04-24T07:10:45;0.47;;;0.40;;
49514;SDS011;35415;47.870;16.058;2023-04-24T07:13:19;0.43;;;0.43;;
49514;SDS011;35415;47.870;16.058;2023-04-24T07:15:50;2.08;;;1.17;;
49514;SDS011;35415;47.870;16.058;2023-04-24T07:18:30;0.70;;;0.40;;
49514;SDS011;35415;47.870;16.058;2023-04-24T07:21:17;0.52;;;0.45;;
49514;SDS011;35415;47.870;16.058;2023-04-24T07:23:51;0.70;;;0.40;;
49514;SDS011;35415;47.870;16.058;2023-04-24T07:26:21;0.73;;;0.70;;
49514;SDS011;35415;47.870;16.058;2023-04-24T07:28:52;0.50;;;0.50;;
49514;SDS011;35415;47.870;16.058;2023-04-24T07:31:23;0.40;;;0.40;;
49514;SDS011;35415;47.870;16.058;2023-04-24T07:34:21;0.43;;;0.43;;
49514;SDS011;35415;47.870;16.058;2023-04-24T07:36:51;0.40;;;0.40;;
49514;SDS011;35415;47.870;16.058;2023-04-24T07:39:22;0.32;;;0.32;;
49514;SDS011;35415;47.870;16.058;2023-04-24T07:42:05;0.55;;;0.45;;
49514;SDS011;35415;47.870;16.058;2023-04-24T07:44:41;1.10;;;0.40;;
49514;SDS011;35415;47.870;16.058;2023-04-24T07:47:20;1.98;;;0.38;;
49514;SDS011;35415;47.870;16.058;2023-04-24T07:49:50;1.00;;;0.30;;
49514;SDS011;35415;47.870;16.058;2023-04-24T07:52:30;0.40;;;0.40;;
49514;SDS011;35415;47.870;16.058;2023-04-24T07:55:00;0.50;;;0.50;;
49514;SDS011;35415;47.870;16.058;2023-04-24T07:57:28;1.27;;;0.50;;
49514;SDS011;35415;47.870;16.058;2023-04-24T07:59:57;0.60;;;0.50;;
49514;SDS011;35415;47.870;16.058;2023-04-24T08:02:30;2.35;;;0.40;;
49514;SDS011;35415;47.870;16.058;2023-04-24T08:05:00;0.83;;;0.57;;
49514;SDS011;35415;47.870;16.058;2023-04-24T08:07:45;0.75;;;0.50;;
49514;SDS011;35415;47.870;16.058;2023-04-24T08:12:46;0.50;;;0.50;;
49514;SDS011;35415;47.870;16.058;2023-04-24T08:15:42;0.38;;;0.38;;
49514;SDS011;35415;47.870;16.058;2023-04-24T08:18:09;0.40;;;0.40;;
49514;SDS011;35415;47.870;16.058;2023-04-24T08:20:41;0.98;;;0.43;;
49514;SDS011;35415;47.870;16.058;2023-04-24T08:23:11;1.17;;;0.50;;
49514;SDS011;35415;47.870;16.058;2023-04-24T08:25:42;3.22;;;0.50;;
49514;SDS011;35415;47.870;16.058;2023-04-24T08:28:09;0.70;;;0.52;;
49514;SDS011;35415;47.870;16.058;2023-04-24T08:33:25;0.63;;;0.63;;
49514;SDS011;35415;47.870;16.058;2023-04-24T08:35:58;0.30;;;0.25;;
49514;SDS011;35415;47.870;16.058;2023-04-24T08:38:32;1.10;;;0.50;;
49514;SDS011;35415;47.870;16.058;2023-04-24T08:41:00;2.72;;;0.40;;
49514;SDS011;35415;47.870;16.058;2023-04-24T08:43:29;0.20;;;0.20;;
49514;SDS011;35415;47.870;16.058;2023-04-24T08:46:03;0.40;;;0.40;;
49514;SDS011;35415;47.870;16.058;2023-04-24T08:49:00;0.55;;;0.20;;
49514;SDS011;35415;47.870;16.058;2023-04-24T08:51:28;0.90;;;0.40;;
49514;SDS011;35415;47.870;16.058;2023-04-24T08:53:58;1.08;;;0.47;;
49514;SDS011;35415;47.870;16.058;2023-04-24T08:56:31;0.70;;;0.38;;
49514;SDS011;35415;47.870;16.058;2023-04-24T08:59:04;1.85;;;0.20;;
49514;SDS011;35415;47.870;16.058;2023-04-24T09:04:40;0.50;;;0.50;;
49514;SDS011;35415;47.870;16.058;2023-04-24T09:07:10;0.30;;;0.30;;
49514;SDS011;35415;47.870;16.058;2023-04-24T09:09:43;0.88;;;0.35;;
49514;SDS011;35415;47.870;16.058;2023-04-24T09:12:17;0.30;;;0.30;;
49514;SDS011;35415;47.870;16.058;2023-04-24T09:14:46;0.30;;;0.30;;
49514;SDS011;35415;47.870;16.058;2023-04-24T09:17:23;0.30;;;0.30;;
49514;SDS011;35415;47.870;16.058;2023-04-24T09:19:54;0.75;;;0.40;;
49514;SDS011;35415;47.870;16.058;2023-04-24T09:22:29;0.38;;;0.35;;
49514;SDS011;35415;47.870;16.058;2023-04-24T09:25:01;0.20;;;0.20;;
49514;SDS011;35415;47.870;16.058;2023-04-24T09:27:41;2.45;;;0.40;;
49514;SDS011;35415;47.870;16.058;2023-04-24T09:30:11;1.75;;;0.60;;
49514;SDS011;35415;47.870;16.058;2023-04-24T09:32:41;0.77;;;0.50;;
49514;SDS011;35415;47.870;16.058;2023-04-24T09:35:19;1.15;;;0.40;;
49514;SDS011;35415;47.870;16.058;2023-04-24T09:37:51;1.58;;;0.70;;
49514;SDS011;35415;47.870;16.058;2023-04-24T09:40:21;1.25;;;0.52;;
49514;SDS011;35415;47.870;16.058;2023-04-24T09:42:54;0.20;;;0.20;;
49514;SDS011;35415;47.870;16.058;2023-04-24T09:45:36;0.20;;;0.20;;
49514;SDS011;35415;47.870;16.058;2023-04-24T09:48:14;0.35;;;0.30;;
49514;SDS011;35415;47.870;16.058;2023-04-24T09:50:45;0.20;;;0.20;;
49514;SDS011;35415;47.870;16.058;2023-04-24T09:53:14;0.30;;;0.10;;
49514;SDS011;35415;47.870;16.058;2023-04-24T09:55:44;0.20;;;0.13;;
49514;SDS011;35415;47.870;16.058;2023-04-24T09:58:14;0.43;;;0.22;;
49514;SDS011;35415;47.870;16.058;2023-04-24T10:00:42;1.60;;;0.10;;
49514;SDS011;35415;47.870;16.058;2023-04-24T10:03:12;0.17;;;0.17;;
49514;SDS011;35415;47.870;16.058;2023-04-24T10:05:48;0.10;;;0.10;;
49514;SDS011;35415;47.870;16.058;2023-04-24T10:08:21;0.20;;;0.20;;
49514;SDS011;35415;47.870;16.058;2023-04-24T10:10:54;0.35;;;0.30;;
49514;SDS011;35415;47.870;16.058;2023-04-24T10:13:24;0.10;;;0.10;;
49514;SDS011;35415;47.870;16.058;2023-04-24T10:15:52;2.38;;;0.43;;
49514;SDS011;35415;47.870;16.058;2023-04-24T10:18:22;0.22;;;0.22;;
49514;SDS011;35415;47.870;16.058;2023-04-24T10:20:58;0.43;;;0.30;;
49514;SDS011;35415;47.870;16.058;2023-04-24T10:23:28;2.30;;;0.30;;
49514;SDS011;35415;47.870;16.058;2023-04-24T10:25:57;1.55;;;0.47;;
49514;SDS011;35415;47.870;16.058;2023-04-24T10:28:26;2.47;;;0.22;;
49514;SDS011;35415;47.870;16.058;2023-04-24T10:30:58;1.58;;;0.65;;
49514;SDS011;35415;47.870;16.058;2023-04-24T10:33:30;0.95;;;0.60;;
49514;SDS011;35415;47.870;16.058;2023-04-24T10:35:58;0.40;;;0.40;;
49514;SDS011;35415;47.870;16.058;2023-04-24T10:38:26;0.40;;;0.40;;
49514;SDS011;35415;47.870;16.058;2023-04-24T10:40:57;0.82;;;0.30;;
49514;SDS011;35415;47.870;16.058;2023-04-24T10:43:35;1.27;;;0.32;;
49514;SDS011;35415;47.870;16.058;2023-04-24T10:46:03;0.85;;;0.50;;
49514;SDS011;35415;47.870;16.058;2023-04-24T10:48:33;0.98;;;0.70;;
49514;SDS011;35415;47.870;16.058;2023-04-24T10:51:00;1.75;;;1.30;;
49514;SDS011;35415;47.870;16.058;2023-04-24T10:53:29;0.70;;;0.50;;
49514;SDS011;35415;47.870;16.058;2023-04-24T10:56:03;1.92;;;0.43;;
49514;SDS011;35415;47.870;16.058;2023-04-24T10:58:38;0.35;;;0.30;;
49514;SDS011;35415;47.870;16.058;2023-04-24T11:01:11;1.52;;;0.50;;
49514;SDS011;35415;47.870;16.058;2023-04-24T11:03:53;0.40;;;0.40;;
49514;SDS011;35415;47.870;16.058;2023-04-24T11:06:28;0.50;;;0.50;;
49514;SDS011;35415;47.870;16.058;2023-04-24T11:09:01;0.57;;;0.30;;
49514;SDS011;35415;47.870;16.058;2023-04-24T11:11:30;0.47;;;0.40;;
49514;SDS011;35415;47.870;16.058;2023-04-24T11:14:05;0.38;;;0.30;;
49514;SDS011;35415;47.870;16.058;2023-04-24T11:16:35;0.57;;;0.43;;
49514;SDS011;35415;47.870;16.058;2023-04-24T11:19:10;0.57;;;0.50;;
49514;SDS011;35415;47.870;16.058;2023-04-24T11:21:46;0.85;;;0.60;;
49514;SDS011;35415;47.870;16.058;2023-04-24T11:24:24;1.38;;;0.40;;
49514;SDS011;35415;47.870;16.058;2023-04-24T11:26:58;0.52;;;0.52;;
49514;SDS011;35415;47.870;16.058;2023-04-24T11:29:43;0.85;;;0.40;;
49514;SDS011;35415;47.870;16.058;2023-04-24T11:32:16;0.70;;;0.50;;
49514;SDS011;35415;47.870;16.058;2023-04-24T11:34:48;0.55;;;0.50;;
49514;SDS011;35415;47.870;16.058;2023-04-24T11:37:19;1.65;;;0.40;;
49514;SDS011;35415;47.870;16.058;2023-04-24T11:39:47;1.63;;;0.45;;
49514;SDS011;35415;47.870;16.058;2023-04-24T11:42:20;0.50;;;0.38;;
49514;SDS011;35415;47.870;16.058;2023-04-24T11:44:49;0.30;;;0.30;;
49514;SDS011;35415;47.870;16.058;2023-04-24T11:47:17;0.30;;;0.30;;
49514;SDS011;35415;47.870;16.058;2023-04-24T11:49:49;0.30;;;0.30;;
49514;SDS011;35415;47.870;16.058;2023-04-24T11:52:16;0.30;;;0.30;;
49514;SDS011;35415;47.870;16.058;2023-04-24T11:54:48;0.45;;;0.40;;
49514;SDS011;35415;47.870;16.058;2023-04-24T11:57:16;0.60;;;0.47;;
49514;SDS011;35415;47.870;16.058;2023-04-24T11:59:47;0.30;;;0.30;;
49514;SDS011;35415;47.870;16.058;2023-04-24T12:02:21;0.55;;;0.40;;
49514;SDS011;35415;47.870;16.058;2023-04-24T12:04:50;0.60;;;0.40;;
49514;SDS011;35415;47.870;16.058;2023-04-24T12:07:19;0.68;;;0.40;;
49514;SDS011;35415;47.870;16.058;2023-04-24T12:09:47;0.63;;;0.20;;
49514;SDS011;35415;47.870;16.058;2023-04-24T12:12:17;1.80;;;0.30;;
49514;SDS011;35415;47.870;16.058;2023-04-24T12:14:47;0.20;;;0.20;;
49514;SDS011;35415;47.870;16.058;2023-04-24T12:17:15;0.30;;;0.30;;
49514;SDS011;35415;47.870;16.058;2023-04-24T12:19:47;0.22;;;0.22;;
49514;SDS011;35415;47.870;16.058;2023-04-24T12:22:17;0.38;;;0.38;;
49514;SDS011;35415;47.870;16.058;2023-04-24T12:24:57;0.22;;;0.22;;
49514;SDS011;35415;47.870;16.058;2023-04-24T12:27:30;2.58;;;0.55;;
49514;SDS011;35415;47.870;16.058;2023-04-24T12:30:01;0.65;;;0.20;;
49514;SDS011;35415;47.870;16.058;2023-04-24T12:32:40;1.50;;;0.40;;
49514;SDS011;35415;47.870;16.058;2023-04-24T12:35:09;0.30;;;0.30;;
49514;SDS011;35415;47.870;16.058;2023-04-24T12:37:38;0.30;;;0.30;;
49514;SDS011;35415;47.870;16.058;2023-04-24T12:40:17;0.25;;;0.20;;
49514;SDS011;35415;47.870;16.058;2023-04-24T12:43:12;7.75;;;1.10;;
49514;SDS011;35415;47.870;16.058;2023-04-24T12:45:40;0.30;;;0.30;;
49514;SDS011;35415;47.870;16.058;2023-04-24T12:48:09;0.30;;;0.30;;
49514;SDS011;35415;47.870;16.058;2023-04-24T12:50:37;0.22;;;0.22;;
49514;SDS011;35415;47.870;16.058;2023-04-24T12:53:14;0.60;;;0.30;;
49514;SDS011;35415;47.870;16.058;2023-04-24T12:55:43;0.52;;;0.30;;
49514;SDS011;35415;47.870;16.058;2023-04-24T12:58:20;0.38;;;0.10;;
49514;SDS011;35415;47.870;16.058;2023-04-24T13:00:47;0.40;;;0.28;;
49514;SDS011;35415;47.870;16.058;2023-04-24T13:03:15;0.40;;;0.25;;
49514;SDS011;35415;47.870;16.058;2023-04-24T13:05:44;0.40;;;0.40;;
49514;SDS011;35415;47.870;16.058;2023-04-24T13:08:24;0.20;;;0.20;;
49514;SDS011;35415;47.870;16.058;2023-04-24T13:10:53;0.20;;;0.20;;
49514;SDS011;35415;47.870;16.058;2023-04-24T13:13:28;0.20;;;0.20;;
49514;SDS011;35415;47.870;16.058;2023-04-24T13:15:55;0.20;;;0.20;;
49514;SDS011;35415;47.870;16.058;2023-04-24T13:18:24;0.80;;;0.50;;
49514;SDS011;35415;47.870;16.058;2023-04-24T13:20:52;4.80;;;2.42;;
49514;SDS011;35415;47.870;16.058;2023-04-24T13:23:19;7.72;;;4.68;;
49514;SDS011;35415;47.870;16.058;2023-04-24T13:25:49;10.30;;;6.13;;
49514;SDS011;35415;47.870;16.058;2023-04-24T13:28:16;4.20;;;2.25;;
49514;SDS011;35415;47.870;16.058;2023-04-24T13:30:46;0.60;;;0.60;;
49514;SDS011;35415;47.870;16.058;2023-04-24T13:33:13;2.55;;;1.67;;
49514;SDS011;35415;47.870;16.058;2023-04-24T13:35:41;1.25;;;0.80;;
49514;SDS011;35415;47.870;16.058;2023-04-24T13:38:08;0.45;;;0.30;;
49514;SDS011;35415;47.870;16.058;2023-04-24T13:40:35;0.80;;;0.43;;
49514;SDS011;35415;47.870;16.058;2023-04-24T13:43:05;0.40;;;0.40;;
49514;SDS011;35415;47.870;16.058;2023-04-24T13:45:32;0.32;;;0.30;;
49514;SDS011;35415;47.870;16.058;2023-04-24T13:48:00;0.60;;;0.60;;
49514;SDS011;35415;47.870;16.058;2023-04-24T13:50:28;1.00;;;0.60;;
49514;SDS011;35415;47.870;16.058;2023-04-24T13:52:55;0.60;;;0.35;;
49514;SDS011;35415;47.870;16.058;2023-04-24T13:55:25;0.38;;;0.20;;
49514;SDS011;35415;47.870;16.058;2023-04-24T13:57:56;0.22;;;0.22;;
49514;SDS011;35415;47.870;16.058;2023-04-24T14:00:25;0.40;;;0.40;;
49514;SDS011;35415;47.870;16.058;2023-04-24T14:02:55;0.20;;;0.20;;
49514;SDS011;35415;47.870;16.058;2023-04-24T14:05:24;0.60;;;0.57;;
49514;SDS011;35415;47.870;16.058;2023-04-24T14:07:51;0.75;;;0.30;;
49514;SDS011;35415;47.870;16.058;2023-04-24T14:10:19;0.57;;;0.38;;
49514;SDS011;35415;47.870;16.058;2023-04-24T14:12:46;0.40;;;0.28;;
49514;SDS011;35415;47.870;16.058;2023-04-24T14:29:26;2.60;;;1.75;;
49514;SDS011;35415;47.870;16.058;2023-04-24T14:32:12;7.90;;;4.57;;
49514;SDS011;35415;47.870;16.058;2023-04-24T14:35:01;5.15;;;2.38;;
49514;SDS011;35415;47.870;16.058;2023-04-24T14:37:46;1.70;;;0.70;;
49514;SDS011;35415;47.870;16.058;2023-04-24T14:40:13;3.70;;;2.20;;
49514;SDS011;35415;47.870;16.058;2023-04-24T14:42:40;2.08;;;1.30;;
49514;SDS011;35415;47.870;16.058;2023-04-24T14:45:28;1.77;;;0.80;;
49514;SDS011;35415;47.870;16.058;2023-04-24T14:48:14;3.40;;;2.20;;
49514;SDS011;35415;47.870;16.058;2023-04-24T14:51:00;3.58;;;1.70;;
49514;SDS011;35415;47.870;16.058;2023-04-24T14:53:46;3.28;;;1.98;;
49514;SDS011;35415;47.870;16.058;2023-04-24T14:56:31;1.25;;;0.93;;
49514;SDS011;35415;47.870;16.058;2023-04-24T14:59:18;1.50;;;0.80;;
49514;SDS011;35415;47.870;16.058;2023-04-24T15:02:06;0.80;;;0.50;;
49514;SDS011;35415;47.870;16.058;2023-04-24T15:04:51;0.50;;;0.50;;
49514;SDS011;35415;47.870;16.058;2023-04-24T15:07:37;1.75;;;0.75;;
49514;SDS011;35415;47.870;16.058;2023-04-24T15:10:21;2.65;;;0.63;;
49514;SDS011;35415;47.870;16.058;2023-04-24T15:12:50;0.88;;;0.50;;
49514;SDS011;35415;47.870;16.058;2023-04-24T15:15:18;0.57;;;0.40;;
49514;SDS011;35415;47.870;16.058;2023-04-24T15:17:47;0.40;;;0.40;;
49514;SDS011;35415;47.870;16.058;2023-04-24T15:20:14;2.22;;;0.40;;